»·PEaware :: WAT308 KHQM-S23

WAT308 :: KHQM-S23

FLIGHT INFORMATION

Flight Status: Arrived
Operator:
Walker Air Transport
More flights by this operator :: More flights under this callsign
Pilot: Travis S. (24866)
Aircraft: BEECH AIRCRAFT SUPER KING AIR 350
(B350)
More flights by this aircraft type
Origin: KHQM Bowerman
United States
Destination: S23 Ione Mun
United States
More flights between these airports :: More routes between these airports
Route:
File this flight plan on PilotEdge
Remarks:
Altitude:
(Current/Filed)
15,500ft
Speed:
(Current/Filed)
250kts
Departed: 28-Jul-20 01:58 PM
Arrived: 28-Jul-20 03:05 PM
Distance/Time
Traveled:
283nm/1:06
Distance/Time
To Go:
Arrived

Flight Plot

Page will automatically refresh every two minutes.

Flight plan parsing failed; only flown route is shown


Map Options




Map Legend


Flown Route
Filed Route
Departure Airport
Arrival Airport
Navaid (VOR, NDB)
Fix

Horizontal Profiles

Position Reports

Time Latitude Longitude Heading Altitude Ground
Speed
28-Jul-20 13:48 46.973423 -123.930415 164 18ft 0kts
28-Jul-20 13:49 46.973423 -123.930415 164 18ft 0kts
28-Jul-20 13:50 46.973423 -123.930415 164 18ft 0kts
28-Jul-20 13:51 46.973423 -123.930415 164 18ft 0kts
28-Jul-20 13:52 46.973423 -123.930415 164 18ft 0kts
28-Jul-20 13:53 46.973354 -123.930388 164 19ft 0kts
28-Jul-20 13:54 46.973167 -123.928934 75 19ft 9kts
28-Jul-20 13:55 46.973154 -123.927395 122 19ft 0kts
28-Jul-20 13:56 46.972464 -123.926829 201 19ft 6kts
28-Jul-20 13:57 46.972072 -123.929217 260 19ft 66kts
28-Jul-20 13:58 46.965955 -123.978871 262 1434ft 160kts
28-Jul-20 13:59 46.958682 -124.047308 262 3474ft 177kts
28-Jul-20 14:00 46.954555 -124.118429 291 5536ft 178kts
28-Jul-20 14:01 46.998214 -124.142799 2 7390ft 191kts
28-Jul-20 14:02 47.051362 -124.132582 34 9378ft 201kts
28-Jul-20 14:03 47.071049 -124.055120 74 11180ft 209kts
28-Jul-20 14:04 47.088916 -123.971491 73 13095ft 216kts
28-Jul-20 14:05 47.107231 -123.887130 73 15058ft 217kts
28-Jul-20 14:06 47.127553 -123.792170 73 15513ft 277kts
28-Jul-20 14:07 47.151991 -123.677282 73 15496ft 308kts
28-Jul-20 14:08 47.178034 -123.554702 73 15492ft 318kts
28-Jul-20 14:09 47.204620 -123.429192 73 15491ft 322kts
28-Jul-20 14:10 47.231074 -123.303653 73 15488ft 321kts
28-Jul-20 14:11 47.256980 -123.178639 74 15488ft 319kts
28-Jul-20 14:12 47.282945 -123.053586 73 15477ft 319kts
28-Jul-20 14:13 47.308758 -122.928874 73 15448ft 316kts
28-Jul-20 14:14 47.334188 -122.805491 73 15434ft 314kts
28-Jul-20 14:15 47.359435 -122.682028 73 15435ft 313kts
28-Jul-20 14:16 47.384582 -122.558207 73 15437ft 313kts
28-Jul-20 14:18 47.409477 -122.434851 73 15439ft 313kts
28-Jul-20 14:19 47.434038 -122.315738 70 15436ft 313kts
28-Jul-20 14:20 47.470403 -122.198309 64 15440ft 313kts
28-Jul-20 14:21 47.507235 -122.083433 64 15452ft 313kts
28-Jul-20 14:22 47.543724 -121.969159 64 15465ft 313kts
28-Jul-20 14:23 47.580803 -121.852523 64 15472ft 312kts
28-Jul-20 14:24 47.617618 -121.736207 64 15472ft 312kts
28-Jul-20 14:25 47.654467 -121.619246 64 15473ft 313kts
28-Jul-20 14:26 47.690788 -121.503406 64 15474ft 313kts
28-Jul-20 14:27 47.727472 -121.385604 64 15418ft 314kts
28-Jul-20 14:28 47.763046 -121.271123 65 15415ft 313kts
28-Jul-20 14:29 47.799238 -121.154209 65 15416ft 313kts
28-Jul-20 14:30 47.834359 -121.040125 65 15344ft 316kts
28-Jul-20 14:31 47.870897 -120.920999 65 15263ft 315kts
28-Jul-20 14:32 47.905554 -120.807521 65 15269ft 312kts
28-Jul-20 14:32 47.935404 -120.709287 65 15274ft 311kts
28-Jul-20 14:34 47.976717 -120.572618 66 15278ft 312kts
28-Jul-20 14:35 48.011967 -120.455346 66 15282ft 312kts
28-Jul-20 14:35 48.041609 -120.356262 66 15283ft 312kts
28-Jul-20 14:37 48.081397 -120.222741 66 15280ft 312kts
28-Jul-20 14:37 48.109260 -120.128802 66 15266ft 312kts
28-Jul-20 14:38 48.144446 -120.009570 66 15253ft 312kts
28-Jul-20 14:40 48.185389 -119.870169 66 15251ft 312kts
28-Jul-20 14:40 48.214393 -119.770900 66 15251ft 312kts
28-Jul-20 14:41 48.249217 -119.651179 66 15251ft 311kts
28-Jul-20 14:42 48.283790 -119.531697 67 15252ft 311kts
28-Jul-20 14:43 48.311779 -119.408097 73 15257ft 317kts
28-Jul-20 14:44 48.337841 -119.282666 73 15251ft 323kts
28-Jul-20 14:45 48.364508 -119.153466 73 15251ft 324kts
28-Jul-20 14:46 48.391241 -119.023307 73 15251ft 323kts
28-Jul-20 14:47 48.417813 -118.893139 73 15273ft 322kts
28-Jul-20 14:48 48.444089 -118.763310 73 15288ft 322kts
28-Jul-20 14:49 48.470250 -118.633442 73 15290ft 323kts
28-Jul-20 14:50 48.496345 -118.502878 73 15288ft 323kts
28-Jul-20 14:51 48.522263 -118.372491 73 15284ft 323kts
28-Jul-20 14:52 48.547000 -118.247157 74 15280ft 323kts
28-Jul-20 14:53 48.572672 -118.116599 74 14743ft 329kts
28-Jul-20 14:54 48.598751 -117.983841 74 13262ft 332kts
28-Jul-20 14:55 48.624396 -117.851224 74 11751ft 320kts
28-Jul-20 14:56 48.645245 -117.723998 98 10202ft 301kts
28-Jul-20 14:57 48.599143 -117.627796 134 8732ft 280kts
28-Jul-20 14:58 48.574028 -117.519226 85 7183ft 279kts
28-Jul-20 14:59 48.621900 -117.438760 32 5669ft 248kts
28-Jul-20 15:00 48.652083 -117.363360 103 4056ft 200kts
28-Jul-20 15:01 48.617722 -117.364231 273 4080ft 174kts
28-Jul-20 15:02 48.663788 -117.398669 350 2982ft 191kts
28-Jul-20 15:03 48.705722 -117.412291 347 2112ft 108kts
28-Jul-20 15:04 48.713782 -117.414472 81 2116ft 8kts
28-Jul-20 15:05 48.713836 -117.414596 247 2116ft 0kts
28-Jul-20 15:06 48.713836 -117.414596 247 2116ft 0kts
28-Jul-20 15:07 48.713836 -117.414595 247 2116ft 0kts
28-Jul-20 15:08 48.713836 -117.414595 247 2116ft 0kts
28-Jul-20 15:09 48.713836 -117.414595 247 2116ft 0kts

Navigation Log

Ident Type
Flight plan parsing failed, navigation log unavailable